createdAt,value
2023-03-20T00:00:53.533Z,100.00
2023-03-20T00:01:56.798Z,100.00
2023-03-20T00:02:59.581Z,100.00
2023-03-20T00:04:05.765Z,100.00
2023-03-20T00:05:20.431Z,100.00
2023-03-20T00:06:26.811Z,100.00
2023-03-20T00:07:29.862Z,100.00
2023-03-20T00:08:33.226Z,100.00
2023-03-20T00:09:35.983Z,100.00
2023-03-20T00:10:41.340Z,100.00
2023-03-20T00:11:49.133Z,100.00
2023-03-20T00:12:52.325Z,100.00
2023-03-20T00:13:58.813Z,100.00
2023-03-20T00:15:02.828Z,100.00
2023-03-20T00:16:05.703Z,100.00
2023-03-20T00:17:13.091Z,100.00
2023-03-20T00:18:18.871Z,100.00
2023-03-20T00:19:30.894Z,100.00
2023-03-20T00:20:34.409Z,100.00
2023-03-20T00:21:37.623Z,100.00
2023-03-20T00:22:41.649Z,100.00
2023-03-20T00:23:44.978Z,100.00
2023-03-20T00:24:48.857Z,100.00
2023-03-20T00:26:14.587Z,100.00
2023-03-20T00:27:18.911Z,100.00
2023-03-20T00:28:24.215Z,100.00
2023-03-20T00:29:29.048Z,100.00
2023-03-20T00:30:31.435Z,100.00
2023-03-20T00:31:37.675Z,100.00
2023-03-20T00:32:41.124Z,100.00
2023-03-20T00:33:43.441Z,100.00
2023-03-20T00:34:46.460Z,100.00
2023-03-20T00:35:49.562Z,100.00
2023-03-20T00:36:54.991Z,100.00
2023-03-20T00:37:57.741Z,100.00
2023-03-20T00:39:05.598Z,100.00
2023-03-20T00:40:09.489Z,100.00
2023-03-20T00:41:26.658Z,100.00
2023-03-20T00:42:29.791Z,100.00
2023-03-20T00:43:33.095Z,100.00
2023-03-20T00:44:38.411Z,100.00
2023-03-20T00:45:44.912Z,100.00
2023-03-20T00:46:49.979Z,100.00
2023-03-20T00:47:53.570Z,100.00
2023-03-20T00:48:58.324Z,100.00
2023-03-20T00:50:02.096Z,100.00
2023-03-20T00:51:05.785Z,100.00
2023-03-20T00:52:13.353Z,100.00
2023-03-20T00:53:15.975Z,100.00
2023-03-20T00:54:19.141Z,100.00
2023-03-20T00:55:23.724Z,100.00
2023-03-20T00:56:34.249Z,100.00
2023-03-20T00:57:40.324Z,100.00
2023-03-20T00:58:42.554Z,100.00
2023-03-20T00:59:50.607Z,100.00
2023-03-20T01:00:53.836Z,100.00
2023-03-20T01:01:57.407Z,100.00
2023-03-20T01:03:01.167Z,100.00
2023-03-20T01:04:06.265Z,100.00
2023-03-20T01:05:09.504Z,100.00
2023-03-20T01:06:13.308Z,100.00
2023-03-20T01:07:15.860Z,100.00
2023-03-20T01:08:20.877Z,100.00
2023-03-20T01:09:25.375Z,100.00
2023-03-20T01:10:30.532Z,100.00
2023-03-20T01:11:33.082Z,100.00
2023-03-20T01:12:35.696Z,100.00
2023-03-20T01:13:39.387Z,100.00
2023-03-20T01:14:43.360Z,100.00
2023-03-20T01:15:47.341Z,100.00
2023-03-20T01:16:50.933Z,100.00
2023-03-20T01:17:54.963Z,100.00
2023-03-20T01:18:58.459Z,100.00
2023-03-20T01:20:00.871Z,100.00
2023-03-20T01:21:04.621Z,100.00
2023-03-20T01:22:09.114Z,100.00
2023-03-20T01:23:12.787Z,100.00
2023-03-20T01:24:18.691Z,100.00
2023-03-20T01:25:21.570Z,100.00
2023-03-20T01:26:39.770Z,100.00
2023-03-20T01:27:47.508Z,100.00
2023-03-20T01:28:51.478Z,100.00
2023-03-20T01:29:54.993Z,100.00
2023-03-20T01:31:00.563Z,100.00
2023-03-20T01:32:08.532Z,100.00
2023-03-20T01:33:14.158Z,100.00
2023-03-20T01:34:18.756Z,100.00
2023-03-20T01:35:25.929Z,100.00
2023-03-20T01:36:28.997Z,100.00
2023-03-20T01:37:34.634Z,100.00
2023-03-20T01:38:42.825Z,100.00
2023-03-20T01:39:46.434Z,100.00
2023-03-20T01:41:00.893Z,100.00
2023-03-20T01:42:06.295Z,100.00
2023-03-20T01:43:10.982Z,100.00
2023-03-20T01:44:25.866Z,100.00
2023-03-20T01:45:33.115Z,100.00
2023-03-20T01:46:38.349Z,100.00
2023-03-20T01:47:43.527Z,100.00
2023-03-20T01:48:54.204Z,100.00
2023-03-20T01:50:16.042Z,100.00
2023-03-20T01:51:20.943Z,100.00
2023-03-20T01:52:24.948Z,100.00
2023-03-20T01:53:31.150Z,100.00
2023-03-20T01:54:37.477Z,100.00
2023-03-20T01:55:44.836Z,100.00
2023-03-20T01:56:53.194Z,100.00
2023-03-20T01:57:58.221Z,100.00
2023-03-20T01:59:06.834Z,100.00
2023-03-20T02:00:13.903Z,100.00
2023-03-20T02:01:19.139Z,100.00
2023-03-20T02:02:26.098Z,100.00
2023-03-20T02:03:31.199Z,100.00
2023-03-20T02:04:41.274Z,100.00
2023-03-20T02:05:46.818Z,100.00
2023-03-20T02:06:50.117Z,100.00
2023-03-20T02:08:05.842Z,100.00
2023-03-20T02:09:09.424Z,100.00
2023-03-20T02:10:16.234Z,100.00
2023-03-20T02:11:27.459Z,100.00
2023-03-20T02:12:32.110Z,100.00
2023-03-20T02:13:35.636Z,100.00
2023-03-20T02:14:39.523Z,100.00
2023-03-20T02:16:10.772Z,100.00
2023-03-20T02:17:34.101Z,100.00
2023-03-20T02:18:40.286Z,100.00
2023-03-20T02:20:04.720Z,100.00
2023-03-20T02:21:26.326Z,100.00
2023-03-20T02:22:30.733Z,100.00
2023-03-20T02:23:51.324Z,100.00
2023-03-20T02:25:07.340Z,100.00
2023-03-20T02:26:15.969Z,100.00
2023-03-20T02:27:36.345Z,100.00
2023-03-20T02:28:49.338Z,100.00
2023-03-20T02:30:10.749Z,100.00
2023-03-20T02:31:36.130Z,100.00
2023-03-20T02:32:50.572Z,100.00
2023-03-20T02:33:56.285Z,100.00
2023-03-20T02:35:07.176Z,100.00
2023-03-20T02:36:26.738Z,100.00
2023-03-20T02:37:50.672Z,100.00
2023-03-20T02:38:55.445Z,100.00
2023-03-20T02:40:01.487Z,100.00
2023-03-20T02:41:14.960Z,100.00
2023-03-20T02:42:34.361Z,100.00
2023-03-20T02:43:51.634Z,100.00
2023-03-20T02:44:59.469Z,100.00
2023-03-20T02:46:12.579Z,100.00
2023-03-20T02:47:28.982Z,100.00
2023-03-20T02:48:47.835Z,100.00
2023-03-20T02:49:52.368Z,100.00
2023-03-20T02:50:57.754Z,100.00
2023-03-20T02:52:02.762Z,100.00
2023-03-20T02:53:11.330Z,100.00
2023-03-20T02:54:17.396Z,100.00
2023-03-20T02:55:29.460Z,100.00
2023-03-20T02:56:40.260Z,100.00
2023-03-20T02:57:44.507Z,100.00
2023-03-20T02:59:06.574Z,100.00
2023-03-20T03:00:11.216Z,100.00
2023-03-20T03:01:20.376Z,100.00
2023-03-20T03:02:33.329Z,100.00
2023-03-20T03:03:39.897Z,100.00
2023-03-20T03:04:54.071Z,100.00
2023-03-20T03:06:00.589Z,100.00
2023-03-20T03:07:05.152Z,100.00
2023-03-20T03:08:13.516Z,100.00
2023-03-20T03:09:18.440Z,100.00
2023-03-20T03:10:28.613Z,100.00
2023-03-20T03:11:34.722Z,100.00
2023-03-20T03:12:42.191Z,100.00
2023-03-20T03:13:46.735Z,100.00
2023-03-20T03:14:51.348Z,100.00
2023-03-20T03:15:59.163Z,100.00
2023-03-20T03:17:08.028Z,100.00
2023-03-20T03:18:15.357Z,100.00
2023-03-20T03:19:23.471Z,100.00
2023-03-20T03:20:32.971Z,100.00
2023-03-20T03:21:37.803Z,100.00
2023-03-20T03:22:41.057Z,100.00
2023-03-20T03:23:47.469Z,100.00
2023-03-20T03:24:53.307Z,100.00
2023-03-20T03:25:59.372Z,100.00
2023-03-20T03:27:05.161Z,100.00
2023-03-20T03:28:11.226Z,100.00
2023-03-20T03:29:15.613Z,100.00
2023-03-20T03:30:21.823Z,100.00
2023-03-20T03:31:25.485Z,100.00
2023-03-20T03:32:31.994Z,100.00
2023-03-20T03:33:37.449Z,100.00
2023-03-20T03:34:40.678Z,100.00
2023-03-20T03:35:46.895Z,100.00
2023-03-20T03:36:51.253Z,100.00
2023-03-20T03:37:58.560Z,100.00
2023-03-20T03:39:03.726Z,100.00
2023-03-20T03:40:15.343Z,100.00
2023-03-20T03:41:22.753Z,100.00
2023-03-20T03:42:35.625Z,100.00
2023-03-20T03:43:46.442Z,100.00
2023-03-20T03:44:51.543Z,100.00
2023-03-20T03:46:01.967Z,100.00
2023-03-20T03:47:08.556Z,100.00
2023-03-20T03:48:16.644Z,100.00
2023-03-20T03:49:23.592Z,100.00
2023-03-20T03:50:34.910Z,100.00
2023-03-20T03:51:40.251Z,100.00
2023-03-20T03:52:48.224Z,100.00
2023-03-20T03:53:56.580Z,100.00
2023-03-20T03:55:01.672Z,100.00
2023-03-20T03:56:11.354Z,100.00
2023-03-20T03:57:16.993Z,100.00
2023-03-20T03:58:24.130Z,100.00
2023-03-20T03:59:38.352Z,100.00
2023-03-20T04:00:43.090Z,100.00
2023-03-20T04:01:46.888Z,100.00
2023-03-20T04:02:52.002Z,100.00
2023-03-20T04:04:01.493Z,100.00
2023-03-20T04:05:07.282Z,100.00
2023-03-20T04:06:13.843Z,100.00
2023-03-20T04:07:17.159Z,100.00
2023-03-20T04:08:21.241Z,100.00
2023-03-20T04:09:24.577Z,100.00
2023-03-20T04:10:30.769Z,100.00
2023-03-20T04:11:38.030Z,100.00
2023-03-20T04:12:44.200Z,100.00
2023-03-20T04:13:48.969Z,100.00
2023-03-20T04:14:51.346Z,100.00
2023-03-20T04:15:55.783Z,100.00
2023-03-20T04:17:00.435Z,100.00
2023-03-20T04:18:05.091Z,100.00
2023-03-20T04:19:08.156Z,100.00
2023-03-20T04:20:13.194Z,100.00
2023-03-20T04:21:16.298Z,100.00
2023-03-20T04:22:21.835Z,100.00
2023-03-20T04:23:25.396Z,100.00
2023-03-20T04:24:28.618Z,100.00
2023-03-20T04:25:31.707Z,100.00
2023-03-20T04:26:35.015Z,100.00
2023-03-20T04:27:38.569Z,100.00
2023-03-20T04:28:45.512Z,100.00
2023-03-20T04:30:06.561Z,100.00
2023-03-20T04:31:19.347Z,100.00
2023-03-20T04:32:24.731Z,100.00
2023-03-20T04:33:48.690Z,100.00
2023-03-20T04:35:10.158Z,100.00
2023-03-20T04:36:14.584Z,100.00
2023-03-20T04:37:17.820Z,100.00
2023-03-20T04:38:23.653Z,100.00
2023-03-20T04:39:33.025Z,100.00
2023-03-20T04:40:36.708Z,100.00
2023-03-20T04:41:41.409Z,100.00
2023-03-20T04:42:44.643Z,100.00
2023-03-20T04:43:47.194Z,100.00
2023-03-20T04:44:50.367Z,100.00
2023-03-20T04:45:53.779Z,97.61
2023-03-20T04:46:59.253Z,94.69
2023-03-20T04:48:03.433Z,90.82
2023-03-20T04:49:07.823Z,85.64
2023-03-20T04:50:12.230Z,82.02
2023-03-20T04:51:16.385Z,77.32
2023-03-20T04:52:21.598Z,75.42
2023-03-20T04:53:27.071Z,74.55
2023-03-20T04:54:32.028Z,74.04
2023-03-20T04:55:35.521Z,72.64
2023-03-20T04:56:38.010Z,70.60
2023-03-20T04:57:45.766Z,68.94
2023-03-20T04:58:48.875Z,66.43
2023-03-20T04:59:56.011Z,64.34
2023-03-20T05:00:59.334Z,61.92
2023-03-20T05:02:03.255Z,61.51
2023-03-20T05:03:08.006Z,60.23
2023-03-20T05:04:11.752Z,58.79
2023-03-20T05:05:15.862Z,57.87
2023-03-20T05:06:20.682Z,57.41
2023-03-20T05:07:24.803Z,57.70
2023-03-20T05:08:30.092Z,58.73
2023-03-20T05:09:35.182Z,59.11
2023-03-20T05:10:40.609Z,59.35
2023-03-20T05:11:51.707Z,58.90
2023-03-20T05:14:10.217Z,58.29
2023-03-20T05:15:29.898Z,58.56
2023-03-20T05:16:48.315Z,59.48
2023-03-20T05:18:02.709Z,61.08
2023-03-20T05:19:25.438Z,62.03
2023-03-20T05:20:45.645Z,61.69
2023-03-20T05:21:51.581Z,60.76
2023-03-20T05:22:57.050Z,59.55
2023-03-20T05:24:06.760Z,58.27
2023-03-20T05:25:27.454Z,56.55
2023-03-20T05:26:46.720Z,54.79
2023-03-20T05:27:56.930Z,55.69
2023-03-20T05:29:01.882Z,55.58
2023-03-20T05:30:23.880Z,55.08
2023-03-20T05:31:38.043Z,53.26
2023-03-20T05:32:58.964Z,51.96
2023-03-20T05:34:08.237Z,51.74
2023-03-20T05:35:22.195Z,53.91
2023-03-20T05:36:27.686Z,53.61
2023-03-20T05:37:35.568Z,52.18
2023-03-20T05:38:57.618Z,51.09
2023-03-20T05:40:20.017Z,53.76
2023-03-20T05:41:25.251Z,55.71
2023-03-20T05:42:35.233Z,57.84
2023-03-20T05:43:42.809Z,59.34
2023-03-20T05:44:48.839Z,61.76
2023-03-20T05:45:54.164Z,64.04
2023-03-20T05:47:15.139Z,64.25
2023-03-20T05:48:35.301Z,63.60
2023-03-20T05:49:49.228Z,61.35
2023-03-20T05:50:54.291Z,58.82
2023-03-20T05:51:59.573Z,61.20
2023-03-20T05:53:17.161Z,62.58
2023-03-20T05:54:28.596Z,60.60
2023-03-20T05:55:37.208Z,61.90
2023-03-20T05:56:59.320Z,64.29
2023-03-20T05:58:13.465Z,60.99
2023-03-20T05:59:27.317Z,59.02
2023-03-20T06:00:48.487Z,56.59
2023-03-20T06:02:09.681Z,54.79
2023-03-20T06:03:16.059Z,52.29
2023-03-20T06:04:21.402Z,50.67
2023-03-20T06:05:35.949Z,49.12
2023-03-20T06:06:39.022Z,47.12
2023-03-20T06:07:42.647Z,47.30
2023-03-20T06:08:48.075Z,46.10
2023-03-20T06:09:51.893Z,46.92
2023-03-20T06:10:57.084Z,47.33
2023-03-20T06:12:00.818Z,45.74
2023-03-20T06:13:04.291Z,44.17
2023-03-20T06:14:09.020Z,42.73
2023-03-20T06:15:14.249Z,42.56
2023-03-20T06:16:19.359Z,44.24
2023-03-20T06:17:25.401Z,44.35
2023-03-20T06:18:30.559Z,45.06
2023-03-20T06:19:34.931Z,46.10
2023-03-20T06:20:39.412Z,47.90
2023-03-20T06:21:42.747Z,49.28
2023-03-20T06:22:46.990Z,48.60
2023-03-20T06:23:52.363Z,47.83
2023-03-20T06:24:59.045Z,44.66
2023-03-20T06:26:04.237Z,43.47
2023-03-20T06:27:09.381Z,41.01
2023-03-20T06:28:12.270Z,39.93
2023-03-20T06:29:16.996Z,39.28
2023-03-20T06:30:23.506Z,40.32
2023-03-20T06:31:26.935Z,41.14
2023-03-20T06:32:30.185Z,43.90
2023-03-20T06:33:35.170Z,46.44
2023-03-20T06:34:39.077Z,49.14
2023-03-20T06:35:44.234Z,52.03
2023-03-20T06:36:48.308Z,55.21
2023-03-20T06:37:53.410Z,55.92
2023-03-20T06:38:57.588Z,57.66
2023-03-20T06:40:01.509Z,53.14
2023-03-20T06:41:05.628Z,48.24
2023-03-20T06:42:08.960Z,43.72
2023-03-20T06:43:14.396Z,42.19
2023-03-20T06:44:20.760Z,42.64
2023-03-20T06:45:25.709Z,45.09
2023-03-20T06:46:33.341Z,46.48
2023-03-20T06:47:36.548Z,47.40
2023-03-20T06:48:42.738Z,46.19
2023-03-20T06:49:46.426Z,46.70
2023-03-20T06:50:50.175Z,47.51
2023-03-20T06:51:54.545Z,51.41
2023-03-20T06:53:01.177Z,54.11
2023-03-20T06:54:08.499Z,53.34
2023-03-20T06:55:11.296Z,51.44
2023-03-20T06:56:14.798Z,49.37
2023-03-20T06:57:19.759Z,48.12
2023-03-20T06:58:23.906Z,48.94
2023-03-20T06:59:27.508Z,50.96
2023-03-20T07:00:35.986Z,51.48
2023-03-20T07:01:41.074Z,47.68
2023-03-20T07:02:44.361Z,44.15
2023-03-20T07:03:49.045Z,41.28
2023-03-20T07:04:55.069Z,40.44
2023-03-20T07:06:01.710Z,38.90
2023-03-20T07:07:06.175Z,37.62
2023-03-20T07:08:11.243Z,35.06
2023-03-20T07:09:14.578Z,34.25
2023-03-20T07:10:17.415Z,34.37
2023-03-20T07:11:22.849Z,34.60
2023-03-20T07:12:28.195Z,34.67
2023-03-20T07:13:33.778Z,34.01
2023-03-20T07:15:00.450Z,33.11
2023-03-20T07:16:05.240Z,32.15
2023-03-20T07:17:10.834Z,31.87
2023-03-20T07:18:14.825Z,30.10
2023-03-20T07:19:19.026Z,30.72
2023-03-20T07:20:23.392Z,31.73
2023-03-20T07:21:27.051Z,32.37
2023-03-20T07:22:35.101Z,32.68
2023-03-20T07:23:40.370Z,32.28
2023-03-20T07:24:47.420Z,33.67
2023-03-20T07:25:51.108Z,32.04
2023-03-20T07:26:55.163Z,30.53
2023-03-20T07:27:58.410Z,31.83
2023-03-20T07:29:01.586Z,31.38
2023-03-20T07:30:06.602Z,30.23
2023-03-20T07:31:11.518Z,30.16
2023-03-20T07:32:14.708Z,30.25
2023-03-20T07:33:22.461Z,28.67
2023-03-20T07:34:25.963Z,27.93
2023-03-20T07:35:30.406Z,26.91
2023-03-20T07:36:33.922Z,26.91
2023-03-20T07:37:36.418Z,26.97
2023-03-20T07:38:40.143Z,27.70
2023-03-20T07:39:46.066Z,27.01
2023-03-20T07:40:53.844Z,26.53
2023-03-20T07:41:57.157Z,26.87
2023-03-20T07:43:01.402Z,25.70
2023-03-20T07:44:11.991Z,25.49
2023-03-20T07:45:19.831Z,27.27
2023-03-20T07:46:23.642Z,25.83
2023-03-20T07:47:26.790Z,25.24
2023-03-20T07:48:29.889Z,26.00
2023-03-20T07:49:35.686Z,26.28
2023-03-20T07:50:38.973Z,27.33
2023-03-20T07:51:41.716Z,28.37
2023-03-20T07:52:52.895Z,28.99
2023-03-20T07:53:57.297Z,27.39
2023-03-20T07:55:00.713Z,26.92
2023-03-20T07:56:03.017Z,27.99
2023-03-20T07:57:09.700Z,28.50
2023-03-20T07:58:13.103Z,30.00
2023-03-20T07:59:18.264Z,31.93
2023-03-20T08:00:21.990Z,32.34
2023-03-20T08:01:24.850Z,30.81
2023-03-20T08:02:29.493Z,28.96
2023-03-20T08:03:32.836Z,27.40
2023-03-20T08:04:37.384Z,28.43
2023-03-20T08:05:40.877Z,27.69
2023-03-20T08:06:43.220Z,29.09
2023-03-20T08:07:46.576Z,28.73
2023-03-20T08:08:53.459Z,27.71
2023-03-20T08:09:56.862Z,29.11
2023-03-20T08:11:00.256Z,26.60
2023-03-20T08:12:03.768Z,27.27
2023-03-20T08:13:07.275Z,28.79
2023-03-20T08:14:30.348Z,28.50
2023-03-20T08:15:34.221Z,30.99
2023-03-20T08:16:37.771Z,28.93
2023-03-20T08:17:44.308Z,27.76
2023-03-20T08:18:47.674Z,26.91
2023-03-20T08:19:50.837Z,26.14
2023-03-20T08:20:54.046Z,24.91
2023-03-20T08:21:58.404Z,25.67
2023-03-20T08:23:01.444Z,26.85
2023-03-20T08:24:04.649Z,28.10
2023-03-20T08:25:09.036Z,27.40
2023-03-20T08:26:13.930Z,25.98
2023-03-20T08:28:21.621Z,26.33
2023-03-20T08:29:24.962Z,26.46
2023-03-20T08:30:28.340Z,27.45
2023-03-20T08:31:33.219Z,27.83
2023-03-20T08:32:38.056Z,27.58
2023-03-20T08:33:41.517Z,26.11
2023-03-20T08:34:45.249Z,26.51
2023-03-20T08:35:58.578Z,28.91
2023-03-20T08:37:02.675Z,28.09
2023-03-20T08:38:05.915Z,27.65
2023-03-20T08:39:09.579Z,29.49
2023-03-20T08:40:12.884Z,28.97
2023-03-20T08:41:17.280Z,29.85
2023-03-20T08:42:21.499Z,30.04
2023-03-20T08:43:24.801Z,31.52
2023-03-20T08:44:27.943Z,32.28
2023-03-20T08:45:31.243Z,30.21
2023-03-20T08:46:35.714Z,31.13
2023-03-20T08:47:40.694Z,32.52
2023-03-20T08:48:43.406Z,31.89
2023-03-20T08:49:48.554Z,33.07
2023-03-20T08:50:51.803Z,34.74
2023-03-20T08:51:54.096Z,32.91
2023-03-20T08:52:57.141Z,34.80
2023-03-20T08:53:59.718Z,34.06
2023-03-20T08:55:02.705Z,35.36
2023-03-20T08:56:05.791Z,33.48
2023-03-20T08:57:09.645Z,33.96
2023-03-20T08:58:12.822Z,35.83
2023-03-20T08:59:16.098Z,36.00
2023-03-20T09:00:19.825Z,35.13
2023-03-20T09:01:26.932Z,35.35
2023-03-20T09:02:31.431Z,37.69
2023-03-20T09:03:35.443Z,35.65
2023-03-20T09:04:38.580Z,34.83
2023-03-20T09:05:42.666Z,36.93
2023-03-20T09:06:45.757Z,37.20
2023-03-20T09:07:48.100Z,34.20
2023-03-20T09:08:52.374Z,35.90
2023-03-20T09:09:55.707Z,36.29
2023-03-20T09:10:58.932Z,34.48
2023-03-20T09:12:01.669Z,36.07
2023-03-20T09:13:23.455Z,34.66
2023-03-20T09:14:10.046Z,35.74
2023-03-20T09:15:12.598Z,36.29
2023-03-20T09:16:15.984Z,34.30
2023-03-20T09:17:21.090Z,35.27
2023-03-20T09:18:25.813Z,35.62
2023-03-20T09:19:31.762Z,34.62
2023-03-20T09:20:35.741Z,34.63
2023-03-20T09:21:40.515Z,35.52
2023-03-20T09:22:45.589Z,35.54
2023-03-20T09:23:47.743Z,36.14
2023-03-20T09:24:50.858Z,36.59
2023-03-20T09:25:53.812Z,37.54
2023-03-20T09:27:01.229Z,38.92
2023-03-20T09:28:04.335Z,35.65
2023-03-20T09:29:07.758Z,36.36
2023-03-20T09:30:13.280Z,37.95
2023-03-20T09:31:16.597Z,37.66
2023-03-20T09:32:19.807Z,36.56
2023-03-20T09:33:22.867Z,36.46
2023-03-20T09:34:25.619Z,36.69
2023-03-20T09:35:28.315Z,36.37
2023-03-20T09:36:30.569Z,36.17
2023-03-20T09:37:33.611Z,36.23
2023-03-20T09:38:36.876Z,35.63
2023-03-20T09:39:39.076Z,37.17
2023-03-20T09:40:50.986Z,39.19
2023-03-20T09:41:57.604Z,38.60
2023-03-20T09:43:01.961Z,40.05
2023-03-20T09:44:06.094Z,40.44
2023-03-20T09:45:11.617Z,37.84
2023-03-20T09:46:22.392Z,38.74
2023-03-20T09:47:37.503Z,38.69
2023-03-20T09:48:49.341Z,39.83
2023-03-20T09:50:00.225Z,39.13
2023-03-20T09:51:08.022Z,39.63
2023-03-20T09:52:19.523Z,38.63
2023-03-20T09:53:23.885Z,38.27
2023-03-20T09:54:40.441Z,37.66
2023-03-20T09:55:40.124Z,37.21
2023-03-20T09:56:44.914Z,38.06
2023-03-20T09:57:50.545Z,38.92
2023-03-20T09:58:58.483Z,39.14
2023-03-20T10:00:03.360Z,38.08
2023-03-20T10:01:12.466Z,38.62
2023-03-20T10:02:18.776Z,38.30
2023-03-20T10:03:23.931Z,38.83
2023-03-20T10:04:29.165Z,38.46
2023-03-20T10:05:34.405Z,38.76
2023-03-20T10:06:36.995Z,38.88
2023-03-20T10:07:40.121Z,39.61
2023-03-20T10:08:43.545Z,40.68
2023-03-20T10:09:47.452Z,39.86
2023-03-20T10:10:56.785Z,40.60
2023-03-20T10:12:09.580Z,40.10
2023-03-20T10:13:29.716Z,40.85
2023-03-20T10:14:37.483Z,39.88
2023-03-20T10:15:45.430Z,41.48
2023-03-20T10:16:52.539Z,39.98
2023-03-20T10:18:02.997Z,39.71
2023-03-20T10:19:07.921Z,41.14
2023-03-20T10:20:15.345Z,42.21
2023-03-20T10:21:21.499Z,40.38
2023-03-20T10:22:27.297Z,40.83
2023-03-20T10:23:37.641Z,40.82
2023-03-20T10:24:41.727Z,40.83
2023-03-20T10:25:50.312Z,41.32
2023-03-20T10:26:54.166Z,40.72
2023-03-20T10:28:05.039Z,39.69
2023-03-20T10:29:10.112Z,39.82
2023-03-20T10:30:14.286Z,39.63
2023-03-20T10:31:19.444Z,39.51
2023-03-20T10:32:23.610Z,40.78
2023-03-20T10:33:46.561Z,40.33
2023-03-20T10:34:50.820Z,40.88
2023-03-20T10:35:56.092Z,41.15
2023-03-20T10:37:01.378Z,41.27
2023-03-20T10:38:06.223Z,40.78
2023-03-20T10:39:23.211Z,40.22
2023-03-20T10:40:39.790Z,41.76
2023-03-20T10:41:44.967Z,40.47
2023-03-20T10:42:51.196Z,41.19
2023-03-20T10:43:56.242Z,39.68
2023-03-20T10:45:01.396Z,39.44
2023-03-20T10:46:06.409Z,41.11
2023-03-20T10:47:10.826Z,39.64
2023-03-20T10:48:17.525Z,39.16
2023-03-20T10:49:39.003Z,39.96
2023-03-20T10:50:43.932Z,39.62
2023-03-20T10:51:48.310Z,40.70
2023-03-20T10:52:54.406Z,39.55
2023-03-20T10:53:59.378Z,39.54
2023-03-20T10:55:07.305Z,39.26
2023-03-20T10:56:15.776Z,38.81
2023-03-20T10:57:25.440Z,38.90
2023-03-20T10:58:31.311Z,40.63
2023-03-20T10:59:40.635Z,41.17
2023-03-20T11:00:44.487Z,41.22
2023-03-20T11:01:47.904Z,40.79
2023-03-20T11:02:52.251Z,40.70
2023-03-20T11:03:57.935Z,40.85
2023-03-20T11:05:03.056Z,39.14
2023-03-20T11:06:10.452Z,40.25
2023-03-20T11:07:18.309Z,38.55
2023-03-20T11:08:23.561Z,41.27
2023-03-20T11:09:30.502Z,39.17
2023-03-20T11:10:34.038Z,40.28
2023-03-20T11:11:39.842Z,38.79
2023-03-20T11:12:44.058Z,38.88
2023-03-20T11:13:48.569Z,41.11
2023-03-20T11:14:53.456Z,39.14
2023-03-20T11:15:56.764Z,39.81
2023-03-20T11:17:01.974Z,41.46
2023-03-20T11:18:05.705Z,42.24
2023-03-20T11:19:10.142Z,40.66
2023-03-20T11:20:13.431Z,42.31
2023-03-20T11:21:27.327Z,40.63
2023-03-20T11:22:31.683Z,41.71
2023-03-20T11:23:36.765Z,42.37
2023-03-20T11:24:46.799Z,42.09
2023-03-20T11:25:56.349Z,42.54
2023-03-20T11:27:06.578Z,42.03
2023-03-20T11:28:19.140Z,41.81
2023-03-20T11:29:27.122Z,41.46
2023-03-20T11:30:30.480Z,42.58
2023-03-20T11:31:40.346Z,41.78
2023-03-20T11:32:48.250Z,41.17
2023-03-20T11:33:53.256Z,41.25
2023-03-20T11:34:56.937Z,42.05
2023-03-20T11:36:00.511Z,42.05
2023-03-20T11:37:10.534Z,41.06
2023-03-20T11:38:19.346Z,42.44
2023-03-20T11:39:27.532Z,40.45
2023-03-20T11:40:31.214Z,40.63
2023-03-20T11:41:35.473Z,41.26
2023-03-20T11:42:37.995Z,43.14
2023-03-20T11:43:42.333Z,43.11
2023-03-20T11:44:47.285Z,42.17
2023-03-20T11:45:59.033Z,42.38
2023-03-20T11:47:07.169Z,42.65
2023-03-20T11:48:21.192Z,41.78
2023-03-20T11:49:24.903Z,42.64
2023-03-20T11:50:35.879Z,41.88
2023-03-20T11:51:41.687Z,42.28
2023-03-20T11:52:44.076Z,41.51
2023-03-20T11:53:49.093Z,41.72
2023-03-20T11:54:55.849Z,42.39
2023-03-20T11:56:07.128Z,43.02
2023-03-20T11:57:11.455Z,41.63
2023-03-20T11:58:17.885Z,40.81
2023-03-20T11:59:23.039Z,41.34
2023-03-20T12:00:38.268Z,40.23
2023-03-20T12:01:48.561Z,41.34
2023-03-20T12:02:53.263Z,42.13
2023-03-20T12:04:03.483Z,40.79
2023-03-20T12:05:25.256Z,40.97
2023-03-20T12:06:30.002Z,40.20
2023-03-20T12:07:34.524Z,39.56
2023-03-20T12:08:39.569Z,41.18
2023-03-20T12:09:45.122Z,42.88
2023-03-20T12:10:53.015Z,42.38
2023-03-20T12:12:00.019Z,42.48
2023-03-20T12:13:20.021Z,42.04
2023-03-20T12:14:28.083Z,43.21
2023-03-20T12:15:33.782Z,44.71
2023-03-20T12:16:41.692Z,44.03
2023-03-20T12:17:59.560Z,43.56
2023-03-20T12:19:04.888Z,43.90
2023-03-20T12:20:13.477Z,44.39
2023-03-20T12:21:24.292Z,43.19
2023-03-20T12:22:28.905Z,43.54
2023-03-20T12:23:34.775Z,43.93
2023-03-20T12:24:40.200Z,43.93
2023-03-20T12:25:54.948Z,43.34
2023-03-20T12:27:02.232Z,43.20
2023-03-20T12:28:20.018Z,43.86
2023-03-20T12:29:26.339Z,44.92
2023-03-20T12:30:31.509Z,45.28
2023-03-20T12:31:40.128Z,44.56
2023-03-20T12:32:45.477Z,45.00
2023-03-20T12:33:50.698Z,45.07
2023-03-20T12:34:58.459Z,44.30
2023-03-20T12:36:01.644Z,44.84
2023-03-20T12:37:05.941Z,45.78
2023-03-20T12:38:16.546Z,45.10
2023-03-20T12:39:21.932Z,43.07
2023-03-20T12:40:28.000Z,43.10
2023-03-20T12:41:47.804Z,43.49
2023-03-20T12:43:07.810Z,43.87
2023-03-20T12:44:14.828Z,43.91
2023-03-20T12:45:25.654Z,42.94
2023-03-20T12:46:38.093Z,44.05
2023-03-20T12:47:46.030Z,42.90
2023-03-20T12:48:53.142Z,42.83
2023-03-20T12:50:00.269Z,44.19
2023-03-20T12:51:04.566Z,42.32
2023-03-20T12:52:12.696Z,42.27
2023-03-20T12:53:27.944Z,42.50
2023-03-20T12:54:34.905Z,42.31
2023-03-20T12:57:13.761Z,43.27
2023-03-20T12:58:18.758Z,44.16
2023-03-20T12:59:26.169Z,44.80
2023-03-20T13:00:32.700Z,45.22
2023-03-20T13:01:38.832Z,43.56
2023-03-20T13:02:50.619Z,42.89
2023-03-20T13:03:54.185Z,43.34
2023-03-20T13:05:02.603Z,44.34
2023-03-20T13:06:14.799Z,44.02
2023-03-20T13:07:20.387Z,42.83
2023-03-20T13:08:25.223Z,41.71
2023-03-20T13:09:36.503Z,42.61
2023-03-20T13:10:40.900Z,43.46
2023-03-20T13:11:52.605Z,41.82
2023-03-20T13:13:03.483Z,43.61
2023-03-20T13:14:10.122Z,41.60
2023-03-20T13:15:24.177Z,43.43
2023-03-20T13:16:37.875Z,42.80
2023-03-20T13:17:54.469Z,41.76
2023-03-20T13:19:02.898Z,41.41
2023-03-20T13:20:26.932Z,41.83
2023-03-20T13:21:37.901Z,43.10
2023-03-20T13:22:51.950Z,42.28
2023-03-20T13:24:15.402Z,43.56
2023-03-20T13:25:19.834Z,44.03
2023-03-20T13:26:34.968Z,43.26
2023-03-20T13:27:41.376Z,43.13
2023-03-20T13:28:49.387Z,43.04
2023-03-20T13:29:54.744Z,44.12
2023-03-20T13:31:00.229Z,44.60
2023-03-20T13:32:04.593Z,44.88
2023-03-20T13:33:27.882Z,44.43
2023-03-20T13:34:37.514Z,44.25
2023-03-20T13:35:43.094Z,45.14
2023-03-20T13:36:55.581Z,44.96
2023-03-20T13:38:00.861Z,45.53
2023-03-20T13:39:05.944Z,45.00
2023-03-20T13:40:20.846Z,45.27
2023-03-20T13:41:24.927Z,45.59
2023-03-20T13:42:30.538Z,45.07
2023-03-20T13:43:51.287Z,45.39
2023-03-20T13:44:57.822Z,45.97
2023-03-20T13:46:06.656Z,45.89
2023-03-20T13:47:12.200Z,45.38
2023-03-20T13:48:22.549Z,45.95
2023-03-20T13:49:30.328Z,45.77
2023-03-20T13:50:37.786Z,45.44
2023-03-20T13:51:44.749Z,45.60
2023-03-20T13:52:53.655Z,46.33
2023-03-20T13:53:58.769Z,46.24
2023-03-20T13:55:02.998Z,45.88
2023-03-20T13:56:07.748Z,46.10
2023-03-20T13:57:12.966Z,45.64
2023-03-20T13:58:35.240Z,45.68
2023-03-20T13:59:57.950Z,46.04
2023-03-20T14:01:19.175Z,47.38
2023-03-20T14:02:25.432Z,47.77
2023-03-20T14:03:39.724Z,45.92
2023-03-20T14:04:42.594Z,46.92
2023-03-20T14:05:47.239Z,47.56
2023-03-20T14:06:51.792Z,47.76
2023-03-20T14:07:56.220Z,47.80
2023-03-20T14:09:01.156Z,46.39
2023-03-20T14:10:25.912Z,47.26
2023-03-20T14:11:35.990Z,47.40
2023-03-20T14:12:39.487Z,47.57
2023-03-20T14:13:45.604Z,46.77
2023-03-20T14:14:54.653Z,48.39
2023-03-20T14:15:59.412Z,47.98
2023-03-20T14:17:20.154Z,46.35
2023-03-20T14:18:28.250Z,47.71
2023-03-20T14:19:40.025Z,47.89